sensor_id;sensor_type;location;lat;lon;timestamp;P1;durP1;ratioP1;P2;durP2;ratioP2
72388;SDS011;60566;48.062;9.930;2022-09-01T00:01:12;31.45;;;16.85;;
72388;SDS011;60566;48.062;9.930;2022-09-01T00:03:39;33.08;;;18.40;;
72388;SDS011;60566;48.062;9.930;2022-09-01T00:06:05;31.75;;;18.65;;
72388;SDS011;60566;48.062;9.930;2022-09-01T00:08:30;32.97;;;17.17;;
72388;SDS011;60566;48.062;9.930;2022-09-01T00:10:55;33.85;;;17.98;;
72388;SDS011;60566;48.062;9.930;2022-09-01T00:13:21;31.45;;;18.13;;
72388;SDS011;60566;48.062;9.930;2022-09-01T00:15:46;34.83;;;17.95;;
72388;SDS011;60566;48.062;9.930;2022-09-01T00:18:11;34.28;;;17.45;;
72388;SDS011;60566;48.062;9.930;2022-09-01T00:20:38;34.97;;;17.05;;
72388;SDS011;60566;48.062;9.930;2022-09-01T00:23:03;30.85;;;16.65;;
72388;SDS011;60566;48.062;9.930;2022-09-01T00:25:29;31.10;;;17.27;;
72388;SDS011;60566;48.062;9.930;2022-09-01T00:27:54;33.50;;;18.25;;
72388;SDS011;60566;48.062;9.930;2022-09-01T00:30:20;34.42;;;19.02;;
72388;SDS011;60566;48.062;9.930;2022-09-01T00:32:46;27.92;;;16.55;;
72388;SDS011;60566;48.062;9.930;2022-09-01T00:35:12;32.53;;;16.48;;
72388;SDS011;60566;48.062;9.930;2022-09-01T00:37:39;34.40;;;18.45;;
72388;SDS011;60566;48.062;9.930;2022-09-01T00:40:05;32.55;;;17.75;;
72388;SDS011;60566;48.062;9.930;2022-09-01T00:42:31;30.73;;;18.02;;
72388;SDS011;60566;48.062;9.930;2022-09-01T00:44:57;33.33;;;17.85;;
72388;SDS011;60566;48.062;9.930;2022-09-01T00:47:22;32.63;;;17.60;;
72388;SDS011;60566;48.062;9.930;2022-09-01T00:49:48;32.80;;;17.88;;
72388;SDS011;60566;48.062;9.930;2022-09-01T00:52:16;35.25;;;17.50;;
72388;SDS011;60566;48.062;9.930;2022-09-01T00:54:48;31.60;;;16.48;;
72388;SDS011;60566;48.062;9.930;2022-09-01T00:57:15;35.50;;;17.88;;
72388;SDS011;60566;48.062;9.930;2022-09-01T00:59:42;36.53;;;18.50;;
72388;SDS011;60566;48.062;9.930;2022-09-01T01:02:11;30.65;;;16.50;;
72388;SDS011;60566;48.062;9.930;2022-09-01T01:04:36;34.92;;;18.00;;
72388;SDS011;60566;48.062;9.930;2022-09-01T01:07:02;31.08;;;16.45;;
72388;SDS011;60566;48.062;9.930;2022-09-01T01:09:28;29.02;;;16.13;;
72388;SDS011;60566;48.062;9.930;2022-09-01T01:11:57;34.28;;;17.13;;
72388;SDS011;60566;48.062;9.930;2022-09-01T01:14:23;31.48;;;16.73;;
72388;SDS011;60566;48.062;9.930;2022-09-01T01:16:48;35.47;;;17.10;;
72388;SDS011;60566;48.062;9.930;2022-09-01T01:19:15;29.95;;;16.52;;
72388;SDS011;60566;48.062;9.930;2022-09-01T01:21:45;33.67;;;18.38;;
72388;SDS011;60566;48.062;9.930;2022-09-01T01:24:20;33.67;;;17.05;;
72388;SDS011;60566;48.062;9.930;2022-09-01T01:26:47;34.42;;;18.83;;
72388;SDS011;60566;48.062;9.930;2022-09-01T01:29:13;34.63;;;18.42;;
72388;SDS011;60566;48.062;9.930;2022-09-01T01:31:38;37.67;;;17.70;;
72388;SDS011;60566;48.062;9.930;2022-09-01T01:34:03;36.38;;;17.58;;
72388;SDS011;60566;48.062;9.930;2022-09-01T01:36:29;33.88;;;18.33;;
72388;SDS011;60566;48.062;9.930;2022-09-01T01:38:57;37.78;;;19.25;;
72388;SDS011;60566;48.062;9.930;2022-09-01T01:41:25;33.53;;;17.63;;
72388;SDS011;60566;48.062;9.930;2022-09-01T01:43:51;36.15;;;17.67;;
72388;SDS011;60566;48.062;9.930;2022-09-01T01:46:16;36.90;;;18.95;;
72388;SDS011;60566;48.062;9.930;2022-09-01T01:48:42;36.85;;;18.15;;
72388;SDS011;60566;48.062;9.930;2022-09-01T01:51:07;30.23;;;15.98;;
72388;SDS011;60566;48.062;9.930;2022-09-01T01:53:33;33.15;;;17.15;;
72388;SDS011;60566;48.062;9.930;2022-09-01T01:55:58;35.80;;;18.38;;
72388;SDS011;60566;48.062;9.930;2022-09-01T01:58:25;32.35;;;16.90;;
72388;SDS011;60566;48.062;9.930;2022-09-01T02:00:52;35.80;;;18.52;;
72388;SDS011;60566;48.062;9.930;2022-09-01T02:03:19;47.08;;;19.35;;
72388;SDS011;60566;48.062;9.930;2022-09-01T02:05:47;35.75;;;18.23;;
72388;SDS011;60566;48.062;9.930;2022-09-01T02:08:14;40.03;;;19.58;;
72388;SDS011;60566;48.062;9.930;2022-09-01T02:10:41;43.05;;;20.40;;
72388;SDS011;60566;48.062;9.930;2022-09-01T02:13:10;41.88;;;20.48;;
72388;SDS011;60566;48.062;9.930;2022-09-01T02:15:38;41.75;;;20.58;;
72388;SDS011;60566;48.062;9.930;2022-09-01T02:18:04;37.58;;;20.08;;
72388;SDS011;60566;48.062;9.930;2022-09-01T02:20:30;38.42;;;19.85;;
72388;SDS011;60566;48.062;9.930;2022-09-01T02:22:55;37.40;;;19.25;;
72388;SDS011;60566;48.062;9.930;2022-09-01T02:25:20;36.42;;;19.08;;
72388;SDS011;60566;48.062;9.930;2022-09-01T02:27:46;37.33;;;18.58;;
72388;SDS011;60566;48.062;9.930;2022-09-01T02:30:12;39.65;;;19.95;;
72388;SDS011;60566;48.062;9.930;2022-09-01T02:32:38;39.70;;;19.90;;
72388;SDS011;60566;48.062;9.930;2022-09-01T02:35:04;40.92;;;20.13;;
72388;SDS011;60566;48.062;9.930;2022-09-01T02:37:30;41.42;;;19.33;;
72388;SDS011;60566;48.062;9.930;2022-09-01T02:39:56;42.20;;;20.48;;
72388;SDS011;60566;48.062;9.930;2022-09-01T02:42:21;38.17;;;19.60;;
72388;SDS011;60566;48.062;9.930;2022-09-01T02:44:46;40.50;;;20.13;;
72388;SDS011;60566;48.062;9.930;2022-09-01T02:47:12;41.42;;;20.80;;
72388;SDS011;60566;48.062;9.930;2022-09-01T02:49:39;41.88;;;20.35;;
72388;SDS011;60566;48.062;9.930;2022-09-01T02:52:04;38.80;;;19.38;;
72388;SDS011;60566;48.062;9.930;2022-09-01T02:54:30;36.28;;;18.40;;
72388;SDS011;60566;48.062;9.930;2022-09-01T02:56:56;39.90;;;19.45;;
72388;SDS011;60566;48.062;9.930;2022-09-01T02:59:24;38.90;;;19.45;;
72388;SDS011;60566;48.062;9.930;2022-09-01T03:01:51;36.50;;;19.58;;
72388;SDS011;60566;48.062;9.930;2022-09-01T03:04:17;39.13;;;20.40;;
72388;SDS011;60566;48.062;9.930;2022-09-01T03:06:44;39.00;;;19.92;;
72388;SDS011;60566;48.062;9.930;2022-09-01T03:09:11;37.25;;;18.95;;
72388;SDS011;60566;48.062;9.930;2022-09-01T03:11:40;38.85;;;19.23;;
72388;SDS011;60566;48.062;9.930;2022-09-01T03:14:09;37.42;;;18.85;;
72388;SDS011;60566;48.062;9.930;2022-09-01T03:16:35;41.72;;;20.48;;
72388;SDS011;60566;48.062;9.930;2022-09-01T03:19:00;38.38;;;19.85;;
72388;SDS011;60566;48.062;9.930;2022-09-01T03:21:26;42.38;;;20.40;;
72388;SDS011;60566;48.062;9.930;2022-09-01T03:23:52;36.60;;;19.15;;
72388;SDS011;60566;48.062;9.930;2022-09-01T03:26:18;36.95;;;20.27;;
72388;SDS011;60566;48.062;9.930;2022-09-01T03:28:44;39.85;;;19.92;;
72388;SDS011;60566;48.062;9.930;2022-09-01T03:31:10;42.45;;;20.58;;
72388;SDS011;60566;48.062;9.930;2022-09-01T03:33:35;41.25;;;20.20;;
72388;SDS011;60566;48.062;9.930;2022-09-01T03:36:01;38.55;;;19.48;;
72388;SDS011;60566;48.062;9.930;2022-09-01T03:38:27;39.17;;;19.35;;
72388;SDS011;60566;48.062;9.930;2022-09-01T03:40:54;39.22;;;19.02;;
72388;SDS011;60566;48.062;9.930;2022-09-01T03:43:21;41.55;;;20.38;;
72388;SDS011;60566;48.062;9.930;2022-09-01T03:45:46;41.55;;;21.38;;
72388;SDS011;60566;48.062;9.930;2022-09-01T03:48:12;44.65;;;20.13;;
72388;SDS011;60566;48.062;9.930;2022-09-01T03:50:39;41.80;;;21.08;;
72388;SDS011;60566;48.062;9.930;2022-09-01T03:53:05;41.10;;;21.02;;
72388;SDS011;60566;48.062;9.930;2022-09-01T03:55:32;43.60;;;20.67;;
72388;SDS011;60566;48.062;9.930;2022-09-01T03:58:00;40.90;;;19.88;;
72388;SDS011;60566;48.062;9.930;2022-09-01T04:00:27;43.58;;;19.75;;
72388;SDS011;60566;48.062;9.930;2022-09-01T04:02:53;46.22;;;21.75;;
72388;SDS011;60566;48.062;9.930;2022-09-01T04:05:19;45.72;;;21.02;;
72388;SDS011;60566;48.062;9.930;2022-09-01T04:07:45;42.55;;;20.92;;
72388;SDS011;60566;48.062;9.930;2022-09-01T04:10:10;40.92;;;20.17;;
72388;SDS011;60566;48.062;9.930;2022-09-01T04:12:36;41.53;;;19.65;;
72388;SDS011;60566;48.062;9.930;2022-09-01T04:15:03;40.10;;;19.60;;
72388;SDS011;60566;48.062;9.930;2022-09-01T04:17:29;42.40;;;20.58;;
72388;SDS011;60566;48.062;9.930;2022-09-01T04:19:54;40.97;;;19.95;;
72388;SDS011;60566;48.062;9.930;2022-09-01T04:22:20;41.55;;;19.67;;
72388;SDS011;60566;48.062;9.930;2022-09-01T04:24:45;41.55;;;20.42;;
72388;SDS011;60566;48.062;9.930;2022-09-01T04:27:11;40.90;;;19.27;;
72388;SDS011;60566;48.062;9.930;2022-09-01T04:29:36;43.65;;;20.27;;
72388;SDS011;60566;48.062;9.930;2022-09-01T04:32:04;36.47;;;18.80;;
72388;SDS011;60566;48.062;9.930;2022-09-01T04:34:31;42.80;;;20.55;;
72388;SDS011;60566;48.062;9.930;2022-09-01T04:36:57;40.20;;;18.88;;
72388;SDS011;60566;48.062;9.930;2022-09-01T04:39:23;44.38;;;21.35;;
72388;SDS011;60566;48.062;9.930;2022-09-01T04:41:48;41.60;;;19.77;;
72388;SDS011;60566;48.062;9.930;2022-09-01T04:44:15;45.28;;;21.23;;
72388;SDS011;60566;48.062;9.930;2022-09-01T04:46:42;39.63;;;18.90;;
72388;SDS011;60566;48.062;9.930;2022-09-01T04:49:09;42.97;;;19.98;;
72388;SDS011;60566;48.062;9.930;2022-09-01T04:51:36;43.58;;;20.67;;
72388;SDS011;60566;48.062;9.930;2022-09-01T04:54:02;43.72;;;20.63;;
72388;SDS011;60566;48.062;9.930;2022-09-01T04:56:27;43.75;;;20.05;;
72388;SDS011;60566;48.062;9.930;2022-09-01T04:58:53;40.53;;;20.90;;
72388;SDS011;60566;48.062;9.930;2022-09-01T05:01:19;41.58;;;20.55;;
72388;SDS011;60566;48.062;9.930;2022-09-01T05:03:46;38.72;;;18.83;;
72388;SDS011;60566;48.062;9.930;2022-09-01T05:06:14;37.63;;;19.05;;
72388;SDS011;60566;48.062;9.930;2022-09-01T05:08:40;40.13;;;19.80;;
72388;SDS011;60566;48.062;9.930;2022-09-01T05:11:06;38.25;;;19.13;;
72388;SDS011;60566;48.062;9.930;2022-09-01T05:13:31;38.78;;;18.98;;
72388;SDS011;60566;48.062;9.930;2022-09-01T05:16:01;34.65;;;18.13;;
72388;SDS011;60566;48.062;9.930;2022-09-01T05:18:28;39.00;;;18.60;;
72388;SDS011;60566;48.062;9.930;2022-09-01T05:20:54;41.53;;;20.63;;
72388;SDS011;60566;48.062;9.930;2022-09-01T05:23:20;35.05;;;18.02;;
72388;SDS011;60566;48.062;9.930;2022-09-01T05:25:47;36.30;;;18.65;;
72388;SDS011;60566;48.062;9.930;2022-09-01T05:28:15;36.33;;;19.30;;
72388;SDS011;60566;48.062;9.930;2022-09-01T05:30:40;36.65;;;18.33;;
72388;SDS011;60566;48.062;9.930;2022-09-01T05:33:06;42.38;;;18.98;;
72388;SDS011;60566;48.062;9.930;2022-09-01T05:35:32;34.90;;;18.08;;
72388;SDS011;60566;48.062;9.930;2022-09-01T05:37:57;32.90;;;17.10;;
72388;SDS011;60566;48.062;9.930;2022-09-01T05:40:24;32.50;;;16.58;;
72388;SDS011;60566;48.062;9.930;2022-09-01T05:42:49;33.00;;;16.73;;
72388;SDS011;60566;48.062;9.930;2022-09-01T05:45:15;35.05;;;16.52;;
72388;SDS011;60566;48.062;9.930;2022-09-01T05:47:40;29.83;;;16.63;;
72388;SDS011;60566;48.062;9.930;2022-09-01T05:50:06;34.40;;;16.58;;
72388;SDS011;60566;48.062;9.930;2022-09-01T05:52:32;33.78;;;16.20;;
72388;SDS011;60566;48.062;9.930;2022-09-01T05:54:58;28.83;;;15.02;;
72388;SDS011;60566;48.062;9.930;2022-09-01T05:57:25;33.17;;;16.63;;
72388;SDS011;60566;48.062;9.930;2022-09-01T05:59:50;38.67;;;16.95;;
72388;SDS011;60566;48.062;9.930;2022-09-01T06:02:16;33.15;;;16.85;;
72388;SDS011;60566;48.062;9.930;2022-09-01T06:04:41;34.90;;;17.13;;
72388;SDS011;60566;48.062;9.930;2022-09-01T06:07:07;32.90;;;17.92;;
72388;SDS011;60566;48.062;9.930;2022-09-01T06:09:36;29.65;;;16.08;;
72388;SDS011;60566;48.062;9.930;2022-09-01T06:12:02;33.97;;;18.20;;
72388;SDS011;60566;48.062;9.930;2022-09-01T06:14:29;32.60;;;15.98;;
72388;SDS011;60566;48.062;9.930;2022-09-01T06:16:54;31.50;;;16.75;;
72388;SDS011;60566;48.062;9.930;2022-09-01T06:19:19;29.63;;;15.32;;
72388;SDS011;60566;48.062;9.930;2022-09-01T06:21:45;30.85;;;15.65;;
72388;SDS011;60566;48.062;9.930;2022-09-01T06:24:10;36.42;;;16.02;;
72388;SDS011;60566;48.062;9.930;2022-09-01T06:26:36;29.98;;;16.10;;
72388;SDS011;60566;48.062;9.930;2022-09-01T06:29:03;28.05;;;14.35;;
72388;SDS011;60566;48.062;9.930;2022-09-01T06:33:57;28.15;;;15.02;;
72388;SDS011;60566;48.062;9.930;2022-09-01T06:36:23;27.92;;;14.77;;
72388;SDS011;60566;48.062;9.930;2022-09-01T06:38:48;26.08;;;13.85;;
72388;SDS011;60566;48.062;9.930;2022-09-01T06:41:14;34.53;;;15.13;;
72388;SDS011;60566;48.062;9.930;2022-09-01T06:43:39;27.35;;;14.18;;
72388;SDS011;60566;48.062;9.930;2022-09-01T06:46:05;26.85;;;13.38;;
72388;SDS011;60566;48.062;9.930;2022-09-01T06:48:32;26.95;;;13.70;;
72388;SDS011;60566;48.062;9.930;2022-09-01T06:50:58;27.17;;;13.30;;
72388;SDS011;60566;48.062;9.930;2022-09-01T06:53:24;22.80;;;12.63;;
72388;SDS011;60566;48.062;9.930;2022-09-01T06:55:49;23.60;;;12.20;;
72388;SDS011;60566;48.062;9.930;2022-09-01T06:58:15;24.50;;;13.35;;
72388;SDS011;60566;48.062;9.930;2022-09-01T07:00:40;23.17;;;13.23;;
72388;SDS011;60566;48.062;9.930;2022-09-01T07:03:07;21.60;;;11.88;;
72388;SDS011;60566;48.062;9.930;2022-09-01T07:05:40;21.17;;;11.85;;
72388;SDS011;60566;48.062;9.930;2022-09-01T07:08:11;25.70;;;12.45;;
72388;SDS011;60566;48.062;9.930;2022-09-01T07:10:39;21.40;;;11.50;;
72388;SDS011;60566;48.062;9.930;2022-09-01T07:13:06;22.27;;;12.02;;
72388;SDS011;60566;48.062;9.930;2022-09-01T07:15:31;20.92;;;11.82;;
72388;SDS011;60566;48.062;9.930;2022-09-01T07:17:57;21.27;;;12.65;;
72388;SDS011;60566;48.062;9.930;2022-09-01T07:20:23;18.75;;;11.07;;
72388;SDS011;60566;48.062;9.930;2022-09-01T07:22:52;20.08;;;11.98;;
72388;SDS011;60566;48.062;9.930;2022-09-01T07:27:44;21.67;;;11.40;;
72388;SDS011;60566;48.062;9.930;2022-09-01T07:30:10;20.60;;;11.07;;
72388;SDS011;60566;48.062;9.930;2022-09-01T07:32:36;21.30;;;10.02;;
72388;SDS011;60566;48.062;9.930;2022-09-01T07:35:02;17.25;;;10.55;;
72388;SDS011;60566;48.062;9.930;2022-09-01T07:37:28;21.77;;;11.80;;
72388;SDS011;60566;48.062;9.930;2022-09-01T07:39:55;19.92;;;10.75;;
72388;SDS011;60566;48.062;9.930;2022-09-01T07:42:20;17.67;;;10.35;;
72388;SDS011;60566;48.062;9.930;2022-09-01T07:44:45;18.65;;;10.40;;
72388;SDS011;60566;48.062;9.930;2022-09-01T07:47:11;21.63;;;11.38;;
72388;SDS011;60566;48.062;9.930;2022-09-01T07:49:36;20.42;;;11.38;;
72388;SDS011;60566;48.062;9.930;2022-09-01T07:52:02;18.02;;;10.15;;
72388;SDS011;60566;48.062;9.930;2022-09-01T07:54:28;19.10;;;11.15;;
72388;SDS011;60566;48.062;9.930;2022-09-01T07:56:55;18.45;;;10.93;;
72388;SDS011;60566;48.062;9.930;2022-09-01T07:59:20;23.08;;;11.25;;
72388;SDS011;60566;48.062;9.930;2022-09-01T08:01:46;19.98;;;12.00;;
72388;SDS011;60566;48.062;9.930;2022-09-01T08:04:11;18.20;;;10.02;;
72388;SDS011;60566;48.062;9.930;2022-09-01T08:06:37;17.13;;;9.15;;
72388;SDS011;60566;48.062;9.930;2022-09-01T08:09:03;17.25;;;10.00;;
72388;SDS011;60566;48.062;9.930;2022-09-01T08:11:29;17.95;;;10.00;;
72388;SDS011;60566;48.062;9.930;2022-09-01T08:13:56;17.70;;;10.35;;
72388;SDS011;60566;48.062;9.930;2022-09-01T08:16:23;17.02;;;10.25;;
72388;SDS011;60566;48.062;9.930;2022-09-01T08:18:48;20.90;;;10.80;;
72388;SDS011;60566;48.062;9.930;2022-09-01T08:21:14;18.52;;;10.75;;
72388;SDS011;60566;48.062;9.930;2022-09-01T08:23:40;13.98;;;8.18;;
72388;SDS011;60566;48.062;9.930;2022-09-01T08:26:06;14.85;;;8.20;;
72388;SDS011;60566;48.062;9.930;2022-09-01T08:28:32;17.83;;;9.13;;
72388;SDS011;60566;48.062;9.930;2022-09-01T08:30:59;17.85;;;9.57;;
72388;SDS011;60566;48.062;9.930;2022-09-01T08:33:24;18.83;;;9.27;;
72388;SDS011;60566;48.062;9.930;2022-09-01T08:35:50;19.98;;;9.88;;
72388;SDS011;60566;48.062;9.930;2022-09-01T08:38:15;20.23;;;10.65;;
72388;SDS011;60566;48.062;9.930;2022-09-01T08:40:41;17.08;;;9.68;;
72388;SDS011;60566;48.062;9.930;2022-09-01T08:43:11;18.65;;;9.90;;
72388;SDS011;60566;48.062;9.930;2022-09-01T08:45:41;18.35;;;10.68;;
72388;SDS011;60566;48.062;9.930;2022-09-01T08:48:13;20.40;;;10.48;;
72388;SDS011;60566;48.062;9.930;2022-09-01T08:50:40;16.08;;;10.07;;
72388;SDS011;60566;48.062;9.930;2022-09-01T08:53:07;15.48;;;7.80;;
72388;SDS011;60566;48.062;9.930;2022-09-01T08:55:34;17.08;;;9.15;;
72388;SDS011;60566;48.062;9.930;2022-09-01T08:58:01;14.75;;;8.57;;
72388;SDS011;60566;48.062;9.930;2022-09-01T09:00:27;14.02;;;8.73;;
72388;SDS011;60566;48.062;9.930;2022-09-01T09:03:00;14.50;;;8.90;;
72388;SDS011;60566;48.062;9.930;2022-09-01T09:05:42;13.38;;;8.23;;
72388;SDS011;60566;48.062;9.930;2022-09-01T09:08:22;13.85;;;8.68;;
72388;SDS011;60566;48.062;9.930;2022-09-01T09:10:56;14.20;;;8.70;;
72388;SDS011;60566;48.062;9.930;2022-09-01T09:13:23;13.75;;;8.48;;
72388;SDS011;60566;48.062;9.930;2022-09-01T09:15:58;15.10;;;9.07;;
72388;SDS011;60566;48.062;9.930;2022-09-01T09:18:28;14.00;;;8.20;;
72388;SDS011;60566;48.062;9.930;2022-09-01T09:21:01;12.20;;;7.45;;
72388;SDS011;60566;48.062;9.930;2022-09-01T09:23:34;13.63;;;7.50;;
72388;SDS011;60566;48.062;9.930;2022-09-01T09:26:02;12.68;;;7.75;;
72388;SDS011;60566;48.062;9.930;2022-09-01T09:28:27;14.50;;;8.63;;
72388;SDS011;60566;48.062;9.930;2022-09-01T09:33:49;14.50;;;8.30;;
72388;SDS011;60566;48.062;9.930;2022-09-01T09:36:17;11.88;;;8.05;;
72388;SDS011;60566;48.062;9.930;2022-09-01T09:38:43;11.93;;;7.35;;
72388;SDS011;60566;48.062;9.930;2022-09-01T09:41:14;13.10;;;8.18;;
72388;SDS011;60566;48.062;9.930;2022-09-01T09:43:41;11.95;;;7.55;;
72388;SDS011;60566;48.062;9.930;2022-09-01T09:46:21;12.88;;;7.82;;
72388;SDS011;60566;48.062;9.930;2022-09-01T09:48:49;12.00;;;7.60;;
72388;SDS011;60566;48.062;9.930;2022-09-01T09:51:33;12.15;;;8.60;;
72388;SDS011;60566;48.062;9.930;2022-09-01T09:54:09;13.48;;;7.97;;
72388;SDS011;60566;48.062;9.930;2022-09-01T09:56:35;15.02;;;8.65;;
72388;SDS011;60566;48.062;9.930;2022-09-01T09:59:01;13.80;;;8.13;;
72388;SDS011;60566;48.062;9.930;2022-09-01T10:01:41;13.32;;;8.30;;
72388;SDS011;60566;48.062;9.930;2022-09-01T10:04:06;16.88;;;8.75;;
72388;SDS011;60566;48.062;9.930;2022-09-01T10:06:34;14.60;;;8.75;;
72388;SDS011;60566;48.062;9.930;2022-09-01T10:09:02;14.18;;;9.05;;
72388;SDS011;60566;48.062;9.930;2022-09-01T10:13:55;13.48;;;7.57;;
72388;SDS011;60566;48.062;9.930;2022-09-01T10:16:22;12.05;;;7.55;;
72388;SDS011;60566;48.062;9.930;2022-09-01T10:18:51;11.63;;;6.95;;
72388;SDS011;60566;48.062;9.930;2022-09-01T10:21:18;12.00;;;7.47;;
72388;SDS011;60566;48.062;9.930;2022-09-01T10:23:47;11.13;;;7.38;;
72388;SDS011;60566;48.062;9.930;2022-09-01T10:26:13;12.27;;;7.70;;
72388;SDS011;60566;48.062;9.930;2022-09-01T10:28:41;13.60;;;7.80;;
72388;SDS011;60566;48.062;9.930;2022-09-01T10:31:10;11.45;;;7.65;;
72388;SDS011;60566;48.062;9.930;2022-09-01T10:33:36;12.02;;;7.25;;
72388;SDS011;60566;48.062;9.930;2022-09-01T10:36:01;11.07;;;6.82;;
72388;SDS011;60566;48.062;9.930;2022-09-01T10:38:27;10.43;;;7.30;;
72388;SDS011;60566;48.062;9.930;2022-09-01T10:40:55;11.30;;;7.32;;
72388;SDS011;60566;48.062;9.930;2022-09-01T10:49:12;11.13;;;6.45;;
72388;SDS011;60566;48.062;9.930;2022-09-01T10:51:44;11.18;;;7.13;;
72388;SDS011;60566;48.062;9.930;2022-09-01T10:57:18;12.35;;;6.25;;
72388;SDS011;60566;48.062;9.930;2022-09-01T10:59:50;10.02;;;6.30;;
72388;SDS011;60566;48.062;9.930;2022-09-01T11:02:16;16.05;;;7.63;;
72388;SDS011;60566;48.062;9.930;2022-09-01T11:07:37;12.10;;;7.68;;
72388;SDS011;60566;48.062;9.930;2022-09-01T11:10:16;11.95;;;7.93;;
72388;SDS011;60566;48.062;9.930;2022-09-01T11:12:55;12.18;;;8.63;;
72388;SDS011;60566;48.062;9.930;2022-09-01T11:15:35;12.70;;;8.45;;
72388;SDS011;60566;48.062;9.930;2022-09-01T11:18:06;11.77;;;8.40;;
72388;SDS011;60566;48.062;9.930;2022-09-01T11:20:34;12.27;;;7.28;;
72388;SDS011;60566;48.062;9.930;2022-09-01T11:23:02;12.93;;;7.60;;
72388;SDS011;60566;48.062;9.930;2022-09-01T11:25:34;12.95;;;7.03;;
72388;SDS011;60566;48.062;9.930;2022-09-01T11:28:10;11.95;;;7.07;;
72388;SDS011;60566;48.062;9.930;2022-09-01T11:34:06;10.50;;;6.85;;
72388;SDS011;60566;48.062;9.930;2022-09-01T11:36:44;9.48;;;6.60;;
72388;SDS011;60566;48.062;9.930;2022-09-01T11:39:27;12.02;;;7.90;;
72388;SDS011;60566;48.062;9.930;2022-09-01T11:41:56;14.13;;;8.77;;
72388;SDS011;60566;48.062;9.930;2022-09-01T11:46:50;13.10;;;8.00;;
72388;SDS011;60566;48.062;9.930;2022-09-01T11:49:23;12.10;;;7.85;;
72388;SDS011;60566;48.062;9.930;2022-09-01T11:51:51;10.63;;;7.47;;
72388;SDS011;60566;48.062;9.930;2022-09-01T11:54:17;10.30;;;6.25;;
72388;SDS011;60566;48.062;9.930;2022-09-01T11:56:42;8.98;;;6.20;;
72388;SDS011;60566;48.062;9.930;2022-09-01T11:59:08;9.23;;;5.88;;
72388;SDS011;60566;48.062;9.930;2022-09-01T12:01:35;9.55;;;6.40;;
72388;SDS011;60566;48.062;9.930;2022-09-01T12:04:19;11.13;;;6.68;;
72388;SDS011;60566;48.062;9.930;2022-09-01T12:06:50;10.65;;;6.05;;
72388;SDS011;60566;48.062;9.930;2022-09-01T12:09:17;9.18;;;5.97;;
72388;SDS011;60566;48.062;9.930;2022-09-01T12:11:42;11.23;;;7.00;;
72388;SDS011;60566;48.062;9.930;2022-09-01T12:14:08;10.48;;;5.40;;
72388;SDS011;60566;48.062;9.930;2022-09-01T12:16:36;9.93;;;6.88;;
72388;SDS011;60566;48.062;9.930;2022-09-01T12:19:04;9.27;;;6.50;;
72388;SDS011;60566;48.062;9.930;2022-09-01T12:21:30;10.18;;;6.78;;
72388;SDS011;60566;48.062;9.930;2022-09-01T12:24:08;10.05;;;5.82;;
72388;SDS011;60566;48.062;9.930;2022-09-01T12:26:36;9.13;;;6.10;;
72388;SDS011;60566;48.062;9.930;2022-09-01T12:29:01;10.02;;;6.60;;
72388;SDS011;60566;48.062;9.930;2022-09-01T12:31:29;10.50;;;6.38;;
72388;SDS011;60566;48.062;9.930;2022-09-01T12:33:55;9.00;;;5.88;;
72388;SDS011;60566;48.062;9.930;2022-09-01T12:36:22;9.63;;;6.25;;
72388;SDS011;60566;48.062;9.930;2022-09-01T12:38:50;10.07;;;6.20;;
72388;SDS011;60566;48.062;9.930;2022-09-01T12:41:30;10.18;;;6.43;;
72388;SDS011;60566;48.062;9.930;2022-09-01T12:46:50;10.93;;;6.53;;
72388;SDS011;60566;48.062;9.930;2022-09-01T12:49:17;9.77;;;6.85;;
72388;SDS011;60566;48.062;9.930;2022-09-01T12:51:43;10.65;;;7.22;;
72388;SDS011;60566;48.062;9.930;2022-09-01T12:54:08;10.80;;;7.00;;
72388;SDS011;60566;48.062;9.930;2022-09-01T12:56:34;10.20;;;7.13;;
72388;SDS011;60566;48.062;9.930;2022-09-01T12:59:04;10.63;;;7.32;;
72388;SDS011;60566;48.062;9.930;2022-09-01T13:01:34;9.63;;;6.03;;
72388;SDS011;60566;48.062;9.930;2022-09-01T13:06:55;10.70;;;6.82;;
72388;SDS011;60566;48.062;9.930;2022-09-01T13:09:23;10.02;;;7.05;;
72388;SDS011;60566;48.062;9.930;2022-09-01T13:11:49;10.20;;;6.53;;
72388;SDS011;60566;48.062;9.930;2022-09-01T13:14:15;10.85;;;6.50;;
72388;SDS011;60566;48.062;9.930;2022-09-01T13:16:40;9.98;;;6.47;;
72388;SDS011;60566;48.062;9.930;2022-09-01T13:19:06;8.82;;;5.97;;
72388;SDS011;60566;48.062;9.930;2022-09-01T13:21:33;9.75;;;5.68;;
72388;SDS011;60566;48.062;9.930;2022-09-01T13:23:59;13.80;;;6.57;;
72388;SDS011;60566;48.062;9.930;2022-09-01T13:26:25;10.60;;;6.30;;
72388;SDS011;60566;48.062;9.930;2022-09-01T13:28:50;7.55;;;5.13;;
72388;SDS011;60566;48.062;9.930;2022-09-01T13:31:16;10.98;;;5.93;;
72388;SDS011;60566;48.062;9.930;2022-09-01T13:33:41;10.02;;;5.55;;
72388;SDS011;60566;48.062;9.930;2022-09-01T13:36:06;10.48;;;5.63;;
72388;SDS011;60566;48.062;9.930;2022-09-01T13:38:33;11.70;;;6.18;;
72388;SDS011;60566;48.062;9.930;2022-09-01T13:40:59;7.53;;;5.57;;
72388;SDS011;60566;48.062;9.930;2022-09-01T13:43:24;8.80;;;5.85;;
72388;SDS011;60566;48.062;9.930;2022-09-01T13:45:50;8.48;;;5.43;;
72388;SDS011;60566;48.062;9.930;2022-09-01T13:48:15;11.38;;;5.63;;
72388;SDS011;60566;48.062;9.930;2022-09-01T13:50:41;9.02;;;5.80;;
72388;SDS011;60566;48.062;9.930;2022-09-01T13:53:06;8.57;;;5.40;;
72388;SDS011;60566;48.062;9.930;2022-09-01T13:55:34;8.93;;;5.63;;
72388;SDS011;60566;48.062;9.930;2022-09-01T13:58:02;7.47;;;5.13;;
72388;SDS011;60566;48.062;9.930;2022-09-01T14:00:29;11.15;;;5.80;;
72388;SDS011;60566;48.062;9.930;2022-09-01T14:02:56;8.50;;;5.53;;
72388;SDS011;60566;48.062;9.930;2022-09-01T14:05:23;9.73;;;4.57;;
72388;SDS011;60566;48.062;9.930;2022-09-01T14:10:16;8.02;;;4.93;;
72388;SDS011;60566;48.062;9.930;2022-09-01T14:12:43;12.27;;;5.38;;
72388;SDS011;60566;48.062;9.930;2022-09-01T14:15:09;7.88;;;5.28;;
72388;SDS011;60566;48.062;9.930;2022-09-01T14:17:35;7.25;;;5.25;;
72388;SDS011;60566;48.062;9.930;2022-09-01T14:20:02;7.72;;;4.80;;
72388;SDS011;60566;48.062;9.930;2022-09-01T14:22:29;6.25;;;4.40;;
72388;SDS011;60566;48.062;9.930;2022-09-01T14:24:54;7.28;;;4.72;;
72388;SDS011;60566;48.062;9.930;2022-09-01T14:27:19;7.40;;;4.10;;
72388;SDS011;60566;48.062;9.930;2022-09-01T14:29:48;10.15;;;4.55;;
72388;SDS011;60566;48.062;9.930;2022-09-01T14:32:14;6.63;;;4.70;;
72388;SDS011;60566;48.062;9.930;2022-09-01T14:34:39;7.75;;;4.32;;
72388;SDS011;60566;48.062;9.930;2022-09-01T14:37:05;6.63;;;4.35;;
72388;SDS011;60566;48.062;9.930;2022-09-01T14:39:30;6.75;;;4.72;;
72388;SDS011;60566;48.062;9.930;2022-09-01T14:41:56;7.53;;;4.32;;
72388;SDS011;60566;48.062;9.930;2022-09-01T14:44:21;7.13;;;4.38;;
72388;SDS011;60566;48.062;9.930;2022-09-01T14:46:48;6.40;;;4.28;;
72388;SDS011;60566;48.062;9.930;2022-09-01T14:49:13;7.75;;;4.05;;
72388;SDS011;60566;48.062;9.930;2022-09-01T14:51:38;6.93;;;4.57;;
72388;SDS011;60566;48.062;9.930;2022-09-01T14:54:04;7.22;;;4.18;;
72388;SDS011;60566;48.062;9.930;2022-09-01T14:56:29;5.75;;;4.20;;
72388;SDS011;60566;48.062;9.930;2022-09-01T14:58:55;7.25;;;4.40;;
72388;SDS011;60566;48.062;9.930;2022-09-01T15:01:20;7.30;;;4.30;;
72388;SDS011;60566;48.062;9.930;2022-09-01T15:03:47;6.00;;;4.25;;